Time;durP1;ratioP1;P1;durP2;ratioP2;P2;SDS_P1;SDS_P2;PMS_P1;PMS_P2;Temp;Humidity;BMP_temperature;BMP_pressure;BME280_temperature;BME280_humidity;BME280_pressure;Samples;Min_cycle;Max_cycle;Signal;HPM_P1;HPM_P2
2022/11/12 00:00:51;;;;;;;6.17;4.37;;;8.50;99.90;;;;;;5026877;28;20457;-70
2022/11/12 00:03:35;;;;;;;5.23;3.50;;;8.50;99.90;;;;;;5029448;28;20454;-70
2022/11/12 00:06:19;;;;;;;6.20;3.90;;;8.50;99.90;;;;;;5026601;28;20998;-70
2022/11/12 00:09:03;;;;;;;9.07;5.67;;;8.50;99.90;;;;;;5047518;28;20502;-70
2022/11/12 00:11:47;;;;;;;8.50;5.67;;;8.60;99.90;;;;;;5012271;28;22571;-70
2022/11/12 00:14:31;;;;;;;7.10;4.50;;;8.60;99.90;;;;;;5022380;28;20475;-70
2022/11/12 00:17:16;;;;;;;4.90;3.60;;;8.60;99.90;;;;;;5029759;28;20546;-70
2022/11/12 00:20:00;;;;;;;6.80;3.93;;;8.60;99.90;;;;;;5036299;28;20585;-70
2022/11/12 00:22:44;;;;;;;8.40;4.80;;;8.60;99.90;;;;;;5035148;28;20469;-69
2022/11/12 00:25:28;;;;;;;5.53;3.40;;;8.60;99.90;;;;;;5033236;28;20534;-71
2022/11/12 00:28:13;;;;;;;6.27;4.03;;;8.50;99.90;;;;;;5025732;28;20509;-70
2022/11/12 00:30:57;;;;;;;6.83;4.27;;;8.50;99.90;;;;;;5034844;28;20541;-70
2022/11/12 00:33:42;;;;;;;5.50;4.30;;;8.50;99.90;;;;;;5025659;28;20458;-70
2022/11/12 00:36:26;;;;;;;6.20;4.03;;;8.50;99.90;;;;;;5027967;28;20462;-70
2022/11/12 00:39:10;;;;;;;7.87;4.13;;;8.50;99.90;;;;;;5032705;28;20523;-70
2022/11/12 00:41:55;;;;;;;6.17;4.50;;;8.50;99.90;;;;;;5040180;28;20461;-70
2022/11/12 00:44:39;;;;;;;7.50;4.83;;;8.60;99.90;;;;;;5025944;28;20538;-70
2022/11/12 00:47:23;;;;;;;6.33;4.33;;;8.50;99.90;;;;;;5039780;28;20478;-70
2022/11/12 00:50:08;;;;;;;10.17;5.17;;;8.50;99.90;;;;;;5007941;28;20823;-70
2022/11/12 00:52:52;;;;;;;5.77;4.47;;;8.60;99.90;;;;;;5034222;28;21025;-70
2022/11/12 00:55:37;;;;;;;4.83;4.23;;;8.50;99.90;;;;;;5022736;28;20474;-70
2022/11/12 00:58:20;;;;;;;6.83;3.87;;;8.50;99.90;;;;;;5025649;28;20457;-70
2022/11/12 01:01:10;;;;;;;7.57;4.17;;;8.50;99.90;;;;;;5026737;28;20465;-70
2022/11/12 01:03:57;;;;;;;6.50;4.90;;;8.40;99.90;;;;;;5032079;28;20547;-71
2022/11/12 01:06:41;;;;;;;6.47;4.73;;;8.40;99.90;;;;;;5017490;28;20455;-71
2022/11/12 01:09:26;;;;;;;4.53;3.70;;;8.30;99.90;;;;;;5007166;28;20475;-70
2022/11/12 01:12:10;;;;;;;5.60;3.90;;;8.30;99.90;;;;;;5022771;28;20505;-70
2022/11/12 01:14:54;;;;;;;5.60;3.90;;;8.30;99.90;;;;;;5024526;28;20843;-70
2022/11/12 01:17:38;;;;;;;5.10;3.77;;;8.30;99.90;;;;;;5034756;28;20481;-70
2022/11/12 01:20:22;;;;;;;6.60;4.10;;;8.30;99.90;;;;;;5035332;28;20585;-71
2022/11/12 01:23:06;;;;;;;5.33;3.90;;;8.40;99.90;;;;;;5034489;28;21055;-70
2022/11/12 01:25:50;;;;;;;4.40;2.83;;;8.40;99.90;;;;;;5035910;28;20500;-70
2022/11/12 01:28:35;;;;;;;5.10;3.40;;;8.40;99.90;;;;;;5024710;28;20451;-70
2022/11/12 01:31:27;;;;;;;5.80;3.90;;;8.40;99.90;;;;;;5022605;28;20964;-71
2022/11/12 01:34:11;;;;;;;7.27;3.63;;;8.40;99.90;;;;;;5025451;28;20513;-71
2022/11/12 01:36:55;;;;;;;5.90;3.80;;;8.40;99.90;;;;;;5025841;28;20509;-70
2022/11/12 01:39:39;;;;;;;5.33;3.70;;;8.40;99.90;;;;;;5021001;28;20832;-70
2022/11/12 01:42:28;;;;;;;5.33;2.93;;;8.40;99.90;;;;;;5026647;28;20466;-70
2022/11/12 01:45:14;;;;;;;4.03;3.40;;;8.40;99.90;;;;;;5045274;28;20466;-71
2022/11/12 01:47:58;;;;;;;7.37;4.50;;;8.40;99.90;;;;;;5027806;28;20883;-71
2022/11/12 01:50:43;;;;;;;8.33;4.30;;;8.40;99.90;;;;;;5030191;28;20547;-71
2022/11/12 01:53:30;;;;;;;5.27;3.70;;;8.40;99.90;;;;;;5046879;28;20822;-70
2022/11/12 01:56:16;;;;;;;6.27;3.60;;;8.40;99.90;;;;;;5032246;28;20454;-71
2022/11/12 01:59:06;;;;;;;4.97;3.63;;;8.40;99.90;;;;;;5026245;28;20534;-71
2022/11/12 02:01:51;;;;;;;7.17;3.87;;;8.40;99.90;;;;;;5024547;28;20509;-70
2022/11/12 02:04:37;;;;;;;5.63;3.10;;;8.40;99.90;;;;;;5021134;28;20454;-71
2022/11/12 02:07:23;;;;;;;4.53;3.17;;;8.40;99.90;;;;;;5021789;28;20499;-70
2022/11/12 02:10:08;;;;;;;5.30;3.87;;;8.40;99.90;;;;;;5025819;28;20477;-70
2022/11/12 02:15:57;;;;;;;4.90;3.07;;;8.30;99.90;;;;;;5033643;28;20874;-71
2022/11/12 02:18:42;;;;;;;6.70;3.67;;;8.30;99.90;;;;;;5030713;28;20477;-71
2022/11/12 02:21:26;;;;;;;6.37;4.00;;;8.30;99.90;;;;;;5031850;28;20496;-70
2022/11/12 02:24:10;;;;;;;5.47;3.97;;;8.20;99.90;;;;;;5036330;28;20538;-70
2022/11/12 02:26:55;;;;;;;7.47;4.00;;;8.20;99.90;;;;;;5038407;28;20933;-70
2022/11/12 02:29:45;;;;;;;7.00;3.57;;;8.10;99.90;;;;;;5024997;28;20454;-71
2022/11/12 02:32:29;;;;;;;4.90;3.17;;;8.10;99.90;;;;;;5023811;28;20525;-71
2022/11/12 02:35:13;;;;;;;5.50;3.47;;;8.10;99.90;;;;;;5034974;28;20520;-70
2022/11/12 02:37:57;;;;;;;4.90;3.20;;;8.10;99.90;;;;;;5042816;28;20458;-69
2022/11/12 02:40:41;;;;;;;4.57;3.60;;;8.10;99.90;;;;;;5022302;28;20541;-70
2022/11/12 02:43:25;;;;;;;4.53;3.03;;;8.20;99.90;;;;;;5024426;28;21049;-72
2022/11/12 02:46:09;;;;;;;3.80;3.07;;;8.20;99.90;;;;;;5043901;28;20464;-71
2022/11/12 02:48:54;;;;;;;3.63;3.10;;;8.10;99.90;;;;;;5036534;28;20508;-71
2022/11/12 02:51:38;;;;;;;5.10;2.60;;;8.20;99.90;;;;;;5035287;28;20524;-71
2022/11/12 02:54:22;;;;;;;7.17;2.73;;;8.20;99.90;;;;;;5020093;28;20481;-71
2022/11/12 02:57:06;;;;;;;7.97;2.97;;;8.20;99.90;;;;;;5029272;28;20462;-70
2022/11/12 02:59:50;;;;;;;3.00;2.37;;;8.20;99.90;;;;;;5036866;28;20559;-71
2022/11/12 03:02:41;;;;;;;4.30;2.93;;;8.20;99.90;;;;;;5024217;28;20489;-70
2022/11/12 03:05:31;;;;;;;3.03;2.33;;;8.20;99.90;;;;;;5037599;28;20454;-71
2022/11/12 03:08:15;;;;;;;3.57;2.43;;;8.10;99.90;;;;;;5020203;28;20529;-71
2022/11/12 03:11:12;;;;;;;4.00;2.43;;;8.20;99.90;;;;;;5023789;28;20466;-70
2022/11/12 03:13:56;;;;;;;2.97;2.17;;;8.10;99.90;;;;;;5024741;28;20546;-70
2022/11/12 03:16:40;;;;;;;4.17;3.13;;;8.20;99.90;;;;;;5020104;28;20825;-71
2022/11/12 03:19:24;;;;;;;2.90;2.60;;;8.10;99.90;;;;;;5040632;28;20467;-71
2022/11/12 03:22:09;;;;;;;3.70;2.70;;;8.10;99.90;;;;;;5029575;28;21020;-71
2022/11/12 03:24:53;;;;;;;3.07;2.40;;;8.10;99.90;;;;;;5062271;28;20594;-70
2022/11/12 03:27:37;;;;;;;2.50;2.17;;;8.20;99.90;;;;;;5047951;28;20453;-71
2022/11/12 03:30:21;;;;;;;3.77;2.50;;;8.10;99.90;;;;;;5028461;28;20489;-71
2022/11/12 03:33:07;;;;;;;2.70;2.13;;;8.10;99.90;;;;;;5037300;28;20474;-70
2022/11/12 03:35:51;;;;;;;3.90;2.83;;;8.00;99.90;;;;;;5037184;28;20532;-71
2022/11/12 03:38:35;;;;;;;3.57;2.23;;;8.00;99.90;;;;;;5026981;28;20466;-71
2022/11/12 03:41:19;;;;;;;2.60;2.23;;;8.00;99.90;;;;;;5043442;28;20498;-70
2022/11/12 03:44:04;;;;;;;4.40;3.00;;;8.00;99.90;;;;;;5040113;28;20804;-70
2022/11/12 03:46:48;;;;;;;3.30;2.80;;;8.00;99.90;;;;;;5034379;28;20441;-70
2022/11/12 03:49:32;;;;;;;4.33;2.87;;;8.00;99.90;;;;;;5028197;28;20449;-70
2022/11/12 03:52:16;;;;;;;3.30;2.93;;;8.00;99.90;;;;;;5035075;28;20478;-70
2022/11/12 03:55:00;;;;;;;2.63;2.40;;;8.00;99.90;;;;;;5036510;28;20466;-70
2022/11/12 03:57:47;;;;;;;3.47;2.67;;;8.00;99.90;;;;;;5033083;28;20454;-70
2022/11/12 04:00:31;;;;;;;2.40;2.20;;;8.00;99.90;;;;;;5027911;28;20562;-70
2022/11/12 04:03:15;;;;;;;3.50;2.87;;;8.00;99.90;;;;;;5032974;28;20886;-70
2022/11/12 04:09:02;;;;;;;2.73;2.17;;;8.00;99.90;;;;;;5028504;28;20474;-70
2022/11/12 04:11:46;;;;;;;3.40;2.30;;;8.00;99.90;;;;;;5028429;28;20531;-70
2022/11/12 04:14:31;;;;;;;2.47;2.20;;;8.00;99.90;;;;;;5034367;28;20449;-70
2022/11/12 04:23:20;;;;;;;3.33;2.20;;;8.00;99.90;;;;;;5014215;28;20499;-70
2022/11/12 04:26:23;;;;;;;3.97;2.03;;;8.00;99.90;;;;;;5055998;28;20982;-70
2022/11/12 04:32:10;;;;;;;4.57;2.80;;;8.00;99.90;;;;;;5022511;28;20474;-70
2022/11/12 04:34:55;;;;;;;3.13;2.33;;;7.90;99.90;;;;;;5031157;28;20458;-69
2022/11/12 04:37:45;;;;;;;5.13;3.07;;;7.90;99.90;;;;;;5009378;28;20463;-71
2022/11/12 04:46:36;;;;;;;3.30;2.40;;;7.90;99.90;;;;;;5035671;28;20504;-70
2022/11/12 04:49:20;;;;;;;2.63;2.37;;;7.90;99.90;;;;;;5026248;28;20458;-71
2022/11/12 04:52:04;;;;;;;2.80;2.23;;;7.80;99.90;;;;;;5019951;28;20490;-70
2022/11/12 04:54:48;;;;;;;3.93;2.50;;;7.80;99.90;;;;;;5027534;28;20466;-70
2022/11/12 04:57:32;;;;;;;3.03;2.60;;;7.80;99.90;;;;;;5038089;28;20494;-70
2022/11/12 05:00:17;;;;;;;4.13;2.40;;;7.80;99.90;;;;;;5038573;28;20485;-70
2022/11/12 05:03:01;;;;;;;2.43;2.10;;;7.70;99.90;;;;;;5026374;28;20470;-70
2022/11/12 05:05:45;;;;;;;4.53;2.63;;;7.70;99.90;;;;;;5036913;28;20458;-70
2022/11/12 05:08:29;;;;;;;2.50;2.10;;;7.70;99.90;;;;;;5024195;28;20467;-71
2022/11/12 05:11:13;;;;;;;3.33;2.63;;;7.70;99.90;;;;;;5047106;28;20496;-70
2022/11/12 05:13:58;;;;;;;3.33;2.50;;;7.70;99.90;;;;;;5026229;28;20517;-70
2022/11/12 05:16:42;;;;;;;3.30;2.20;;;7.70;99.90;;;;;;5028944;28;20504;-70
2022/11/12 05:19:26;;;;;;;2.50;2.10;;;7.70;99.90;;;;;;5042919;28;20462;-70
2022/11/12 05:22:11;;;;;;;2.83;2.37;;;7.70;99.90;;;;;;5045759;28;20531;-71
2022/11/12 05:24:55;;;;;;;3.20;2.10;;;7.70;99.90;;;;;;5022461;28;20490;-70
2022/11/12 05:27:39;;;;;;;4.37;2.40;;;7.70;99.90;;;;;;5025482;28;20510;-69
2022/11/12 05:30:24;;;;;;;2.70;2.30;;;7.70;99.90;;;;;;5025232;28;20597;-70
2022/11/12 05:33:08;;;;;;;3.57;2.60;;;7.70;99.90;;;;;;5021810;28;20463;-70
2022/11/12 05:35:55;;;;;;;2.73;2.40;;;7.70;99.90;;;;;;5004239;28;20475;-71
2022/11/12 05:38:39;;;;;;;3.27;2.27;;;7.70;99.90;;;;;;5020734;28;20517;-70
2022/11/12 05:41:23;;;;;;;3.90;2.90;;;7.70;99.90;;;;;;5026468;28;20548;-70
2022/11/12 05:44:07;;;;;;;3.70;2.60;;;7.70;99.90;;;;;;5026832;28;20466;-70
2022/11/12 05:46:51;;;;;;;2.60;2.40;;;7.60;99.90;;;;;;5023025;28;20482;-70
2022/11/12 05:49:35;;;;;;;4.00;2.30;;;7.60;99.90;;;;;;5031675;28;20463;-70
2022/11/12 05:52:19;;;;;;;2.40;2.20;;;7.60;99.90;;;;;;5025223;28;21149;-70
2022/11/12 05:55:04;;;;;;;3.97;2.30;;;7.60;99.90;;;;;;5035429;28;20459;-70
2022/11/12 05:57:48;;;;;;;3.20;2.40;;;7.60;99.90;;;;;;5022592;28;21015;-70
2022/11/12 06:00:37;;;;;;;3.20;2.40;;;7.60;99.90;;;;;;5023079;28;20521;-70
2022/11/12 06:03:21;;;;;;;3.37;2.47;;;7.70;99.90;;;;;;5026781;28;20462;-70
2022/11/12 06:06:06;;;;;;;3.87;2.50;;;7.70;99.90;;;;;;5037296;28;20470;-70
2022/11/12 06:08:50;;;;;;;5.13;2.93;;;7.70;99.90;;;;;;5035450;28;20536;-70
2022/11/12 06:11:35;;;;;;;3.23;2.83;;;7.60;99.90;;;;;;5023884;28;20474;-71
2022/11/12 06:14:19;;;;;;;3.57;3.07;;;7.60;99.90;;;;;;5032296;28;20458;-70
2022/11/12 06:17:03;;;;;;;3.23;2.27;;;7.60;99.90;;;;;;5037729;28;20466;-70
2022/11/12 06:19:47;;;;;;;3.23;2.20;;;7.60;99.90;;;;;;5026093;28;20502;-69
2022/11/12 06:22:31;;;;;;;5.87;3.20;;;7.60;99.90;;;;;;5025999;28;20597;-71
2022/11/12 06:25:16;;;;;;;3.50;2.40;;;7.60;99.90;;;;;;5040642;28;20512;-70
2022/11/12 06:28:00;;;;;;;3.90;2.60;;;7.60;99.90;;;;;;5025186;28;20454;-70
2022/11/12 06:30:45;;;;;;;2.57;2.30;;;7.60;99.90;;;;;;5035747;28;20884;-70
2022/11/12 06:33:29;;;;;;;2.87;2.43;;;7.60;99.90;;;;;;5045284;28;20529;-71
2022/11/12 06:36:16;;;;;;;4.93;3.10;;;7.60;99.90;;;;;;5032288;28;20525;-70
2022/11/12 06:39:01;;;;;;;3.83;3.27;;;7.60;99.90;;;;;;5039523;28;20590;-70
2022/11/12 06:41:45;;;;;;;2.60;2.40;;;7.60;99.90;;;;;;5034700;28;20592;-70
2022/11/12 06:44:29;;;;;;;4.47;2.63;;;7.60;99.90;;;;;;5024084;28;20470;-71
2022/11/12 06:47:13;;;;;;;4.00;3.00;;;7.60;99.90;;;;;;5035577;28;20470;-70
2022/11/12 06:49:57;;;;;;;4.20;3.20;;;7.60;99.90;;;;;;5025577;28;20481;-71
2022/11/12 06:52:42;;;;;;;2.80;2.57;;;7.60;99.90;;;;;;5024439;28;20537;-71
2022/11/12 06:55:26;;;;;;;2.67;2.47;;;7.60;99.90;;;;;;5037772;28;20470;-71
2022/11/12 06:58:09;;;;;;;2.90;2.63;;;7.60;99.90;;;;;;5022569;28;20478;-71
2022/11/12 07:00:53;;;;;;;3.90;3.03;;;7.60;99.90;;;;;;5027323;28;20454;-71
2022/11/12 07:03:39;;;;;;;4.20;3.03;;;7.60;99.90;;;;;;5030270;28;20821;-70
2022/11/12 07:06:23;;;;;;;4.23;2.60;;;7.60;99.90;;;;;;5010239;28;20478;-71
2022/11/12 07:09:07;;;;;;;3.87;2.60;;;7.60;99.90;;;;;;5008800;28;20470;-71
2022/11/12 07:11:51;;;;;;;3.43;3.00;;;7.60;99.90;;;;;;5023245;28;20518;-70
2022/11/12 07:14:35;;;;;;;4.57;3.17;;;7.70;99.90;;;;;;5026843;28;20454;-70
2022/11/12 07:17:19;;;;;;;5.97;3.47;;;7.70;99.90;;;;;;5014200;28;20485;-71
2022/11/12 07:20:03;;;;;;;4.80;3.20;;;7.60;99.90;;;;;;5031431;28;20462;-70
2022/11/12 07:22:47;;;;;;;4.93;3.00;;;7.60;99.90;;;;;;5032904;28;20481;-71
2022/11/12 07:25:31;;;;;;;5.17;3.00;;;7.60;99.90;;;;;;5022369;28;20526;-71
2022/11/12 07:28:15;;;;;;;3.63;2.53;;;7.60;99.90;;;;;;5041948;28;20510;-70
2022/11/12 07:31:02;;;;;;;3.57;2.80;;;7.60;99.90;;;;;;5033170;28;20478;-70
2022/11/12 07:33:49;;;;;;;5.20;3.37;;;7.60;99.90;;;;;;5028990;28;20461;-70
2022/11/12 07:36:34;;;;;;;3.63;2.87;;;7.60;99.90;;;;;;5026635;28;20589;-70
2022/11/12 07:39:18;;;;;;;4.30;3.20;;;7.60;99.90;;;;;;5009557;28;20495;-71
2022/11/12 07:42:02;;;;;;;4.53;3.30;;;7.60;99.90;;;;;;5019949;28;20493;-71
2022/11/12 07:44:46;;;;;;;4.73;2.50;;;7.60;99.90;;;;;;5031014;28;20521;-71
2022/11/12 07:47:30;;;;;;;4.50;3.10;;;7.60;99.90;;;;;;5025200;28;20941;-71
2022/11/12 07:50:14;;;;;;;4.10;2.93;;;7.60;99.90;;;;;;5041431;28;20537;-71
2022/11/12 07:52:58;;;;;;;4.00;3.10;;;7.60;99.90;;;;;;5027839;28;20506;-71
2022/11/12 07:55:51;;;;;;;8.13;3.00;;;7.60;99.90;;;;;;5030022;28;20496;-71
2022/11/12 07:58:35;;;;;;;3.90;3.07;;;7.60;99.90;;;;;;5030495;28;20902;-71
2022/11/12 08:01:27;;;;;;;5.10;3.40;;;7.60;99.90;;;;;;5027892;28;20581;-71
2022/11/12 08:04:12;;;;;;;4.03;3.00;;;7.60;99.90;;;;;;5046196;28;20503;-71
2022/11/12 08:06:57;;;;;;;3.10;2.67;;;7.70;99.90;;;;;;5035813;28;20505;-71
2022/11/12 08:09:41;;;;;;;8.30;3.20;;;7.70;99.90;;;;;;5025559;28;20549;-71
2022/11/12 08:12:25;;;;;;;4.40;3.13;;;7.70;99.90;;;;;;5027673;28;20493;-70
2022/11/12 08:15:09;;;;;;;6.73;3.77;;;7.70;99.90;;;;;;5021993;28;20532;-71
2022/11/12 08:17:53;;;;;;;4.30;2.53;;;7.70;99.90;;;;;;5033743;28;20476;-70
2022/11/12 08:20:37;;;;;;;5.57;3.20;;;7.70;99.90;;;;;;5029443;28;20916;-71
2022/11/12 08:23:21;;;;;;;3.97;3.37;;;7.70;99.90;;;;;;5034219;28;21026;-71
2022/11/12 08:26:07;;;;;;;5.30;4.37;;;7.70;99.90;;;;;;5053355;28;20509;-71
2022/11/12 08:28:52;;;;;;;4.53;3.23;;;7.70;99.90;;;;;;5025760;28;20520;-71
2022/11/12 08:31:36;;;;;;;5.20;3.60;;;7.70;99.90;;;;;;5033356;28;20531;-72
2022/11/12 08:34:20;;;;;;;4.83;2.77;;;7.80;99.90;;;;;;5023584;28;20462;-72
2022/11/12 08:37:04;;;;;;;6.00;4.47;;;7.80;99.90;;;;;;5032566;28;20597;-70
2022/11/12 08:39:48;;;;;;;4.07;3.67;;;7.80;99.90;;;;;;5024981;28;20478;-69
2022/11/12 08:42:32;;;;;;;5.50;4.00;;;7.80;99.90;;;;;;5033924;28;20834;-70
2022/11/12 08:45:16;;;;;;;4.77;3.27;;;7.80;99.90;;;;;;5031251;28;20554;-71
2022/11/12 08:48:03;;;;;;;5.80;3.17;;;7.80;99.90;;;;;;5038148;28;20512;-69
2022/11/12 08:50:47;;;;;;;4.70;3.40;;;7.80;99.90;;;;;;5035434;28;20513;-71
2022/11/12 08:53:31;;;;;;;5.00;3.60;;;7.80;99.90;;;;;;5027765;28;20450;-71
2022/11/12 08:56:15;;;;;;;6.20;3.43;;;7.80;99.90;;;;;;5031184;28;20513;-71
2022/11/12 08:58:59;;;;;;;4.23;2.90;;;7.80;99.90;;;;;;5040143;28;20882;-71
2022/11/12 09:01:43;;;;;;;5.13;3.50;;;7.80;99.90;;;;;;5025815;28;20529;-71
2022/11/12 09:04:27;;;;;;;5.10;3.37;;;7.80;99.90;;;;;;5030981;28;21186;-71
2022/11/12 09:07:11;;;;;;;5.30;3.70;;;7.70;99.90;;;;;;5026340;28;20523;-71
2022/11/12 09:09:55;;;;;;;4.83;3.53;;;7.70;99.90;;;;;;5032583;28;20508;-71
2022/11/12 09:12:40;;;;;;;4.63;3.00;;;7.70;99.90;;;;;;5024389;28;20921;-70
2022/11/12 09:15:25;;;;;;;7.57;3.70;;;7.70;99.90;;;;;;5031884;28;20550;-71
2022/11/12 09:18:16;;;;;;;4.60;3.67;;;7.70;99.90;;;;;;5019401;28;20510;-71
2022/11/12 09:21:03;;;;;;;4.20;3.30;;;7.80;99.90;;;;;;5026379;28;20544;-71
2022/11/12 09:23:47;;;;;;;6.53;3.93;;;7.80;99.90;;;;;;5027111;28;20979;-71
2022/11/12 09:26:32;;;;;;;5.00;3.90;;;7.80;99.90;;;;;;5022296;28;20459;-71
2022/11/12 09:29:16;;;;;;;7.47;3.70;;;7.80;99.90;;;;;;5029628;28;20514;-71
2022/11/12 09:32:00;;;;;;;7.37;4.27;;;7.80;99.90;;;;;;5028257;28;20529;-71
2022/11/12 09:34:45;;;;;;;4.67;3.40;;;7.80;99.90;;;;;;5030619;28;20499;-71
2022/11/12 09:37:30;;;;;;;4.80;3.57;;;7.90;99.90;;;;;;5028258;28;20490;-71
2022/11/12 09:40:18;;;;;;;6.40;4.13;;;7.90;99.90;;;;;;5029572;28;20558;-72
2022/11/12 09:43:17;;;;;;;5.93;4.00;;;7.90;99.90;;;;;;5024884;28;20486;-71
2022/11/12 09:46:15;;;;;;;4.43;3.80;;;7.90;99.90;;;;;;5031831;28;20517;-71
2022/11/12 09:49:15;;;;;;;7.90;5.20;;;7.90;99.90;;;;;;5022215;28;20471;-71
2022/11/12 09:52:15;;;;;;;7.03;5.10;;;7.90;99.90;;;;;;5021956;28;20469;-71
2022/11/12 09:55:19;;;;;;;7.23;5.17;;;7.90;99.90;;;;;;5039285;28;20848;-71
2022/11/12 09:58:11;;;;;;;5.67;3.90;;;7.90;99.90;;;;;;5027062;28;20478;-71
2022/11/12 10:01:01;;;;;;;5.83;4.50;;;8.00;99.90;;;;;;5032687;28;20495;-71
2022/11/12 10:03:52;;;;;;;7.47;4.27;;;8.00;99.90;;;;;;5016228;28;20514;-71
2022/11/12 10:06:50;;;;;;;6.90;4.27;;;8.00;99.90;;;;;;5030539;28;20608;-71
2022/11/12 10:09:49;;;;;;;6.60;4.90;;;8.00;99.90;;;;;;5028382;28;20490;-71
2022/11/12 10:12:49;;;;;;;7.33;4.80;;;8.00;99.90;;;;;;5023502;28;20853;-71
2022/11/12 10:19:01;;;;;;;7.07;5.77;;;8.00;99.90;;;;;;5024156;28;20484;-71
2022/11/12 10:21:51;;;;;;;7.40;5.20;;;8.00;99.90;;;;;;5032010;28;20529;-71
2022/11/12 10:24:37;;;;;;;6.47;5.20;;;8.00;99.90;;;;;;5023976;28;20829;-71
2022/11/12 10:27:27;;;;;;;11.87;6.20;;;8.10;99.90;;;;;;5028889;28;20493;-71
2022/11/12 10:30:18;;;;;;;9.23;5.83;;;8.00;99.90;;;;;;5024093;28;20486;-71
2022/11/12 10:33:02;;;;;;;8.77;5.13;;;8.00;99.90;;;;;;5049823;28;20481;-71
2022/11/12 10:35:47;;;;;;;10.87;6.00;;;8.00;99.90;;;;;;5027063;28;20533;-71
2022/11/12 10:38:33;;;;;;;11.40;6.33;;;8.10;99.90;;;;;;5023687;28;20524;-71
2022/11/12 10:41:23;;;;;;;11.43;6.90;;;8.00;99.90;;;;;;5027538;28;20462;-71
2022/11/12 10:44:16;;;;;;;9.97;5.97;;;8.00;99.90;;;;;;5025324;28;20458;-71
2022/11/12 10:47:20;;;;;;;9.90;5.93;;;8.00;99.90;;;;;;5027521;28;20474;-70
2022/11/12 10:50:08;;;;;;;9.30;6.23;;;8.10;99.90;;;;;;5034772;28;20457;-71
2022/11/12 10:53:04;;;;;;;9.67;5.93;;;8.10;99.90;;;;;;5024168;28;20478;-71
2022/11/12 10:55:57;;;;;;;11.57;6.47;;;8.10;99.90;;;;;;5027126;28;20520;-71
2022/11/12 10:58:41;;;;;;;9.87;5.67;;;8.10;99.90;;;;;;5021483;28;20457;-70
2022/11/12 11:01:25;;;;;;;9.77;7.60;;;8.10;99.90;;;;;;5033578;28;20483;-71
2022/11/12 11:04:27;;;;;;;10.70;7.00;;;8.10;99.90;;;;;;5040200;28;20496;-71
2022/11/12 11:07:23;;;;;;;13.20;6.80;;;8.10;99.90;;;;;;5022243;28;20512;-71
2022/11/12 11:10:32;;;;;;;10.20;6.37;;;8.10;99.90;;;;;;5025565;28;20498;-71
2022/11/12 11:13:20;;;;;;;14.27;7.80;;;8.10;99.90;;;;;;5020446;28;20540;-71
2022/11/12 11:16:09;;;;;;;16.90;14.20;;;8.20;99.90;;;;;;5020571;28;20979;-70
2022/11/12 11:19:00;;;;;;;17.40;13.97;;;8.20;99.90;;;;;;5028275;28;20470;-71
2022/11/12 11:21:47;;;;;;;18.73;13.80;;;8.20;99.90;;;;;;5030088;28;20462;-71
2022/11/12 11:25:04;;;;;;;18.47;12.00;;;8.20;99.90;;;;;;5032944;28;21049;-71
2022/11/12 11:28:07;;;;;;;16.83;10.37;;;8.20;99.90;;;;;;5020678;28;20478;-70
2022/11/12 11:30:57;;;;;;;13.23;8.77;;;8.30;99.90;;;;;;5026240;28;20497;-69
2022/11/12 11:33:44;;;;;;;14.17;8.27;;;8.30;99.90;;;;;;5030834;28;20497;-71
2022/11/12 11:36:43;;;;;;;12.70;7.70;;;8.30;99.90;;;;;;5023280;28;20807;-71
2022/11/12 11:39:58;;;;;;;13.73;8.47;;;8.30;99.90;;;;;;5046435;28;20469;-71
2022/11/12 11:42:53;;;;;;;11.63;7.07;;;8.30;99.90;;;;;;5028296;28;20454;-71
2022/11/12 11:45:48;;;;;;;12.60;7.70;;;8.30;99.90;;;;;;5029233;28;20995;-70
2022/11/12 11:48:35;;;;;;;10.13;6.90;;;8.30;99.90;;;;;;5018477;28;20470;-71
2022/11/12 11:51:23;;;;;;;13.40;7.20;;;8.30;99.90;;;;;;5020367;28;20470;-71
2022/11/12 11:54:29;;;;;;;11.70;6.60;;;8.40;99.90;;;;;;5031248;28;20486;-71
2022/11/12 11:57:24;;;;;;;10.37;7.27;;;8.40;99.90;;;;;;5043607;28;21005;-70
2022/11/12 12:00:19;;;;;;;10.30;6.70;;;8.40;99.90;;;;;;5026061;28;20542;-71
2022/11/12 12:03:18;;;;;;;13.67;8.40;;;8.40;99.90;;;;;;5035762;28;20492;-71
2022/11/12 12:06:08;;;;;;;11.70;8.60;;;8.40;99.90;;;;;;5021773;28;20474;-69
2022/11/12 12:09:16;;;;;;;12.43;8.47;;;8.40;99.90;;;;;;5024131;28;20539;-70
2022/11/12 12:12:14;;;;;;;11.93;7.80;;;8.40;99.90;;;;;;5039521;28;20478;-70
2022/11/12 12:15:18;;;;;;;12.27;8.00;;;8.40;99.90;;;;;;5024884;28;20525;-70
2022/11/12 12:18:14;;;;;;;13.47;8.00;;;8.40;99.90;;;;;;5038461;28;20477;-70
2022/11/12 12:21:12;;;;;;;12.93;7.50;;;8.40;99.90;;;;;;5021831;28;20936;-70
2022/11/12 12:24:22;;;;;;;10.27;6.07;;;8.40;99.90;;;;;;5028805;28;20464;-69
2022/11/12 12:27:29;;;;;;;12.50;6.77;;;8.40;99.90;;;;;;5021586;28;20574;-71
2022/11/12 12:30:23;;;;;;;10.23;6.47;;;8.40;99.90;;;;;;5038170;28;20470;-70
2022/11/12 12:33:28;;;;;;;13.80;7.80;;;8.50;99.90;;;;;;5031303;28;20477;-71
2022/11/12 12:36:18;;;;;;;12.50;7.80;;;8.50;99.90;;;;;;5019609;28;20461;-70
2022/11/12 12:39:12;;;;;;;13.50;7.70;;;8.40;99.90;;;;;;5026345;28;20851;-70
2022/11/12 12:42:24;;;;;;;12.93;7.70;;;8.40;99.90;;;;;;5024564;28;20470;-70
2022/11/12 12:45:38;;;;;;;14.40;7.33;;;8.50;99.90;;;;;;5034057;28;20513;-71
2022/11/12 12:48:28;;;;;;;15.27;9.03;;;8.50;99.90;;;;;;5023655;28;20462;-70
2022/11/12 12:51:12;;;;;;;13.17;8.00;;;8.50;99.90;;;;;;5048328;28;20477;-71
2022/11/12 12:53:57;;;;;;;14.57;8.10;;;8.50;99.90;;;;;;5025250;28;20513;-70
2022/11/12 12:56:45;;;;;;;10.77;7.00;;;8.50;99.90;;;;;;5023678;28;20529;-70
2022/11/12 12:59:29;;;;;;;16.40;8.07;;;8.50;99.90;;;;;;5026317;28;20538;-70
2022/11/12 13:02:24;;;;;;;15.33;8.07;;;8.60;99.90;;;;;;5025498;28;20525;-71
2022/11/12 13:05:31;;;;;;;15.10;9.40;;;8.60;99.90;;;;;;5040973;28;20515;-70
2022/11/12 13:08:24;;;;;;;14.00;8.77;;;8.60;99.90;;;;;;5026845;28;20502;-70
2022/11/12 13:11:09;;;;;;;13.10;8.30;;;8.70;99.90;;;;;;5038365;28;20473;-70
2022/11/12 13:13:53;;;;;;;28.67;15.47;;;8.70;99.90;;;;;;5022904;28;22030;-70
2022/11/12 13:16:58;;;;;;;30.37;18.00;;;8.70;99.90;;;;;;5030875;28;20462;-70
2022/11/12 13:19:57;;;;;;;21.57;13.67;;;8.70;99.90;;;;;;5022080;28;20478;-71
2022/11/12 13:22:41;;;;;;;26.70;12.30;;;8.70;99.90;;;;;;5032339;28;20469;-70
2022/11/12 13:25:29;;;;;;;17.97;10.83;;;8.70;99.90;;;;;;5021697;28;20454;-71
2022/11/12 13:28:14;;;;;;;19.90;9.30;;;8.70;99.90;;;;;;5027019;28;20478;-71
2022/11/12 13:31:00;;;;;;;15.80;9.87;;;8.70;99.90;;;;;;5033335;28;20815;-71
2022/11/12 13:33:44;;;;;;;18.90;9.70;;;8.70;99.90;;;;;;5037317;28;20975;-70
2022/11/12 13:36:29;;;;;;;22.97;13.27;;;8.70;99.90;;;;;;5030910;28;20448;-70
2022/11/12 13:39:18;;;;;;;20.97;12.77;;;8.80;99.90;;;;;;5018531;28;20498;-70
2022/11/12 13:45:16;;;;;;;17.70;11.00;;;8.80;99.90;;;;;;5023172;28;20490;-71
2022/11/12 13:48:06;;;;;;;23.13;12.40;;;8.80;99.90;;;;;;5024112;28;20478;-71
2022/11/12 13:50:57;;;;;;;17.87;11.20;;;8.80;99.90;;;;;;5023281;28;20497;-71
2022/11/12 13:53:41;;;;;;;15.00;9.03;;;8.80;99.90;;;;;;5033050;28;20482;-71
2022/11/12 13:56:33;;;;;;;14.03;8.77;;;8.80;99.90;;;;;;5023621;28;20442;-71
2022/11/12 13:59:20;;;;;;;17.00;9.80;;;8.80;99.90;;;;;;5030335;28;20935;-71
2022/11/12 14:02:24;;;;;;;14.00;9.90;;;8.90;99.90;;;;;;5030129;28;20520;-71
2022/11/12 14:05:15;;;;;;;18.83;8.50;;;8.90;99.90;;;;;;5041414;28;20453;-71
2022/11/12 14:08:21;;;;;;;16.47;9.43;;;8.90;99.90;;;;;;5030781;28;20498;-71
2022/11/12 14:11:26;;;;;;;23.27;10.37;;;8.90;99.90;;;;;;5021442;28;20998;-72
2022/11/12 14:14:35;;;;;;;14.23;8.37;;;8.90;99.90;;;;;;5035126;28;20547;-71
2022/11/12 14:17:38;;;;;;;16.07;8.63;;;8.90;99.90;;;;;;5032601;28;20521;-72
2022/11/12 14:20:35;;;;;;;14.00;9.10;;;8.80;99.90;;;;;;5024721;28;20556;-72
2022/11/12 14:23:21;;;;;;;10.53;7.10;;;8.80;99.90;;;;;;5024814;28;20871;-72
2022/11/12 14:26:05;;;;;;;11.77;7.50;;;8.80;99.90;;;;;;5022934;28;20512;-71
2022/11/12 14:28:55;;;;;;;15.67;7.80;;;8.80;99.90;;;;;;5031300;28;20479;-71
2022/11/12 14:31:39;;;;;;;11.90;7.53;;;8.80;99.90;;;;;;5028147;28;20475;-71
2022/11/12 14:34:32;;;;;;;10.20;6.33;;;8.80;99.90;;;;;;5028751;28;20464;-72
2022/11/12 14:37:34;;;;;;;12.27;7.03;;;8.80;99.90;;;;;;5035045;28;20558;-71
2022/11/12 14:40:20;;;;;;;16.50;7.77;;;8.80;99.90;;;;;;5030583;28;20464;-72
2022/11/12 14:43:05;;;;;;;16.10;8.67;;;8.80;99.90;;;;;;5023864;28;20892;-71
2022/11/12 14:45:51;;;;;;;11.40;7.00;;;8.80;99.90;;;;;;5021200;28;20462;-71
2022/11/12 14:48:47;;;;;;;15.43;8.10;;;8.80;99.90;;;;;;5024390;28;20463;-72
2022/11/12 14:51:46;;;;;;;15.07;7.53;;;8.80;99.90;;;;;;5026557;28;20469;-71
2022/11/12 14:54:41;;;;;;;13.60;8.83;;;8.90;99.90;;;;;;5028843;28;20570;-71
2022/11/12 14:57:30;;;;;;;18.07;9.00;;;8.90;99.90;;;;;;5027739;28;20502;-71
2022/11/12 15:00:45;;;;;;;15.10;9.00;;;8.90;99.90;;;;;;5037654;28;20466;-71
2022/11/12 15:03:31;;;;;;;15.57;9.23;;;8.90;99.90;;;;;;5013392;28;20498;-71
2022/11/12 15:06:26;;;;;;;12.70;8.73;;;8.90;99.90;;;;;;5016882;28;20513;-71
2022/11/12 15:09:17;;;;;;;14.97;9.97;;;8.90;99.90;;;;;;5031867;28;20473;-71